sensor_id;sensor_type;location;lat;lon;timestamp;pressure;altitude;pressure_sealevel;temperature;humidity
28344;BME280;15597;50.914;6.638;2023-09-19T00:00:34;100152.94;;;24.09;48.52
28344;BME280;15597;50.914;6.638;2023-09-19T00:03:01;100155.88;;;24.05;48.39
28344;BME280;15597;50.914;6.638;2023-09-19T00:05:28;100162.22;;;24.04;48.40
28344;BME280;15597;50.914;6.638;2023-09-19T00:07:55;100160.50;;;24.03;47.92
28344;BME280;15597;50.914;6.638;2023-09-19T00:10:25;100160.78;;;24.00;48.31
28344;BME280;15597;50.914;6.638;2023-09-19T00:12:55;100159.31;;;23.96;47.89
28344;BME280;15597;50.914;6.638;2023-09-19T00:15:22;100159.31;;;23.96;48.25
28344;BME280;15597;50.914;6.638;2023-09-19T00:17:47;100168.56;;;23.92;48.47
28344;BME280;15597;50.914;6.638;2023-09-19T00:20:14;100163.22;;;23.92;48.43
28344;BME280;15597;50.914;6.638;2023-09-19T00:22:42;100171.38;;;23.90;48.47
28344;BME280;15597;50.914;6.638;2023-09-19T00:25:08;100171.25;;;23.92;48.35
28344;BME280;15597;50.914;6.638;2023-09-19T00:27:38;100178.78;;;23.87;48.18
28344;BME280;15597;50.914;6.638;2023-09-19T00:30:08;100179.50;;;23.89;48.17
28344;BME280;15597;50.914;6.638;2023-09-19T00:32:40;100176.38;;;23.84;48.26
28344;BME280;15597;50.914;6.638;2023-09-19T00:35:06;100170.44;;;23.80;48.59
28344;BME280;15597;50.914;6.638;2023-09-19T00:37:34;100176.91;;;23.77;48.19
28344;BME280;15597;50.914;6.638;2023-09-19T00:40:02;100179.56;;;23.77;48.53
28344;BME280;15597;50.914;6.638;2023-09-19T00:42:28;100176.31;;;23.74;48.57
28344;BME280;15597;50.914;6.638;2023-09-19T00:44:54;100175.72;;;23.70;48.16
28344;BME280;15597;50.914;6.638;2023-09-19T00:47:19;100174.28;;;23.66;48.62
28344;BME280;15597;50.914;6.638;2023-09-19T00:49:45;100170.03;;;23.63;48.35
28344;BME280;15597;50.914;6.638;2023-09-19T00:52:16;100186.31;;;23.60;48.67
28344;BME280;15597;50.914;6.638;2023-09-19T00:54:46;100196.16;;;23.60;48.41
28344;BME280;15597;50.914;6.638;2023-09-19T00:57:13;100205.41;;;23.56;48.53
28344;BME280;15597;50.914;6.638;2023-09-19T00:59:41;100191.34;;;23.54;48.80
28344;BME280;15597;50.914;6.638;2023-09-19T01:02:08;100193.53;;;23.48;48.75
28344;BME280;15597;50.914;6.638;2023-09-19T01:04:34;100196.47;;;23.45;48.88
28344;BME280;15597;50.914;6.638;2023-09-19T01:07:00;100199.13;;;23.45;48.73
28344;BME280;15597;50.914;6.638;2023-09-19T01:09:26;100196.72;;;23.42;48.76
28344;BME280;15597;50.914;6.638;2023-09-19T01:11:57;100198.19;;;23.35;48.64
28344;BME280;15597;50.914;6.638;2023-09-19T01:14:53;100208.88;;;23.24;48.85
28344;BME280;15597;50.914;6.638;2023-09-19T01:17:32;100201.09;;;23.20;48.82
28344;BME280;15597;50.914;6.638;2023-09-19T01:21:03;100208.25;;;23.20;48.92
28344;BME280;15597;50.914;6.638;2023-09-19T01:28:31;100219.56;;;23.01;49.05
28344;BME280;15597;50.914;6.638;2023-09-19T01:31:02;100215.56;;;23.07;49.15
28344;BME280;15597;50.914;6.638;2023-09-19T01:33:53;100228.16;;;23.04;49.39
28344;BME280;15597;50.914;6.638;2023-09-19T01:36:16;100219.31;;;23.04;49.50
28344;BME280;15597;50.914;6.638;2023-09-19T01:38:42;100220.28;;;23.03;48.98
28344;BME280;15597;50.914;6.638;2023-09-19T01:41:11;100234.34;;;22.94;49.11
28344;BME280;15597;50.914;6.638;2023-09-19T01:43:42;100238.97;;;22.91;49.47
28344;BME280;15597;50.914;6.638;2023-09-19T01:46:19;100242.59;;;22.90;49.03
28344;BME280;15597;50.914;6.638;2023-09-19T01:51:56;100251.56;;;22.89;49.50
28344;BME280;15597;50.914;6.638;2023-09-19T01:54:30;100251.94;;;22.96;49.83
28344;BME280;15597;50.914;6.638;2023-09-19T01:57:16;100246.00;;;22.93;49.52
28344;BME280;15597;50.914;6.638;2023-09-19T01:59:52;100245.03;;;22.94;49.34
28344;BME280;15597;50.914;6.638;2023-09-19T02:02:21;100251.09;;;22.96;48.62
28344;BME280;15597;50.914;6.638;2023-09-19T02:04:48;100247.94;;;22.90;48.96
28344;BME280;15597;50.914;6.638;2023-09-19T02:07:14;100250.59;;;22.90;49.07
28344;BME280;15597;50.914;6.638;2023-09-19T02:09:40;100253.50;;;22.87;49.02
28344;BME280;15597;50.914;6.638;2023-09-19T02:12:09;100252.31;;;22.80;48.96
28344;BME280;15597;50.914;6.638;2023-09-19T02:14:35;100250.38;;;22.82;49.06
28344;BME280;15597;50.914;6.638;2023-09-19T02:17:03;100251.09;;;22.84;49.29
28344;BME280;15597;50.914;6.638;2023-09-19T02:19:32;100259.72;;;22.88;49.18
28344;BME280;15597;50.914;6.638;2023-09-19T02:22:00;100256.19;;;22.87;49.25
28344;BME280;15597;50.914;6.638;2023-09-19T02:24:25;100261.66;;;22.86;49.21
28344;BME280;15597;50.914;6.638;2023-09-19T02:26:52;100264.19;;;22.87;49.24
28344;BME280;15597;50.914;6.638;2023-09-19T02:29:20;100266.75;;;22.89;49.17
28344;BME280;15597;50.914;6.638;2023-09-19T02:31:47;100274.50;;;22.92;49.35
28344;BME280;15597;50.914;6.638;2023-09-19T02:34:13;100268.06;;;22.95;49.04
28344;BME280;15597;50.914;6.638;2023-09-19T02:36:42;100276.31;;;22.91;49.25
28344;BME280;15597;50.914;6.638;2023-09-19T02:39:09;100266.25;;;22.95;49.40
28344;BME280;15597;50.914;6.638;2023-09-19T02:41:36;100270.72;;;22.95;49.23
28344;BME280;15597;50.914;6.638;2023-09-19T02:44:02;100272.66;;;22.93;49.22
28344;BME280;15597;50.914;6.638;2023-09-19T02:46:28;100270.00;;;22.93;48.89
28344;BME280;15597;50.914;6.638;2023-09-19T02:48:54;100270.25;;;22.89;48.75
28344;BME280;15597;50.914;6.638;2023-09-19T02:51:20;100276.56;;;22.88;48.98
28344;BME280;15597;50.914;6.638;2023-09-19T02:53:46;100272.19;;;22.87;49.08
28344;BME280;15597;50.914;6.638;2023-09-19T02:56:13;100266.13;;;22.85;48.78
28344;BME280;15597;50.914;6.638;2023-09-19T02:58:39;100271.31;;;22.75;48.83
28344;BME280;15597;50.914;6.638;2023-09-19T03:01:10;100269.25;;;22.68;48.79
28344;BME280;15597;50.914;6.638;2023-09-19T03:03:40;100264.91;;;22.67;48.78
28344;BME280;15597;50.914;6.638;2023-09-19T03:06:06;100271.44;;;22.63;48.92
28344;BME280;15597;50.914;6.638;2023-09-19T03:08:35;100278.72;;;22.60;49.07
28344;BME280;15597;50.914;6.638;2023-09-19T03:11:09;100278.94;;;22.57;49.08
28344;BME280;15597;50.914;6.638;2023-09-19T03:13:39;100286.22;;;22.55;49.12
28344;BME280;15597;50.914;6.638;2023-09-19T03:16:05;100282.19;;;22.50;49.25
28344;BME280;15597;50.914;6.638;2023-09-19T03:18:33;100282.81;;;22.53;49.27
28344;BME280;15597;50.914;6.638;2023-09-19T03:20:59;100280.88;;;22.55;49.52
28344;BME280;15597;50.914;6.638;2023-09-19T03:23:28;100275.56;;;22.55;48.84
28344;BME280;15597;50.914;6.638;2023-09-19T03:25:55;100283.06;;;22.50;48.91
28344;BME280;15597;50.914;6.638;2023-09-19T03:28:22;100279.66;;;22.48;48.88
28344;BME280;15597;50.914;6.638;2023-09-19T03:31:02;100290.75;;;22.42;49.13
28344;BME280;15597;50.914;6.638;2023-09-19T03:33:28;100286.94;;;22.46;49.20
28344;BME280;15597;50.914;6.638;2023-09-19T03:35:57;100288.50;;;22.49;49.24
28344;BME280;15597;50.914;6.638;2023-09-19T03:38:25;100285.50;;;22.53;48.98
28344;BME280;15597;50.914;6.638;2023-09-19T03:40:51;100285.13;;;22.58;48.88
28344;BME280;15597;50.914;6.638;2023-09-19T03:43:17;100291.06;;;22.61;48.99
28344;BME280;15597;50.914;6.638;2023-09-19T03:45:43;100292.78;;;22.63;48.78
28344;BME280;15597;50.914;6.638;2023-09-19T03:48:11;100283.91;;;22.62;48.95
28344;BME280;15597;50.914;6.638;2023-09-19T03:50:36;100287.44;;;22.63;48.89
28344;BME280;15597;50.914;6.638;2023-09-19T03:53:02;100283.81;;;22.64;49.15
28344;BME280;15597;50.914;6.638;2023-09-19T03:55:28;100295.06;;;22.67;49.22
28344;BME280;15597;50.914;6.638;2023-09-19T03:57:56;100296.66;;;22.70;49.06
28344;BME280;15597;50.914;6.638;2023-09-19T04:00:22;100288.44;;;22.73;49.20
28344;BME280;15597;50.914;6.638;2023-09-19T04:02:51;100293.97;;;22.58;49.48
28344;BME280;15597;50.914;6.638;2023-09-19T04:05:17;100291.66;;;22.65;49.31
28344;BME280;15597;50.914;6.638;2023-09-19T04:07:42;100298.47;;;22.69;49.17
28344;BME280;15597;50.914;6.638;2023-09-19T04:10:08;100295.47;;;22.74;49.08
28344;BME280;15597;50.914;6.638;2023-09-19T04:12:37;100291.59;;;22.78;48.75
28344;BME280;15597;50.914;6.638;2023-09-19T04:15:04;100285.28;;;22.79;48.80
28344;BME280;15597;50.914;6.638;2023-09-19T04:17:29;100287.69;;;22.82;48.47
28344;BME280;15597;50.914;6.638;2023-09-19T04:19:55;100284.94;;;22.84;48.22
28344;BME280;15597;50.914;6.638;2023-09-19T04:22:20;100285.19;;;22.81;48.51
28344;BME280;15597;50.914;6.638;2023-09-19T04:24:46;100283.44;;;22.80;48.60
28344;BME280;15597;50.914;6.638;2023-09-19T04:27:11;100286.88;;;22.82;48.36
28344;BME280;15597;50.914;6.638;2023-09-19T04:29:40;100278.00;;;22.81;48.54
28344;BME280;15597;50.914;6.638;2023-09-19T04:32:07;100288.56;;;22.83;48.58
28344;BME280;15597;50.914;6.638;2023-09-19T04:34:33;100292.22;;;22.82;48.56
28344;BME280;15597;50.914;6.638;2023-09-19T04:37:00;100287.69;;;22.82;48.38
28344;BME280;15597;50.914;6.638;2023-09-19T04:39:26;100288.69;;;22.81;48.57
28344;BME280;15597;50.914;6.638;2023-09-19T04:41:52;100291.34;;;22.81;48.24
28344;BME280;15597;50.914;6.638;2023-09-19T04:44:18;100292.31;;;22.80;48.69
28344;BME280;15597;50.914;6.638;2023-09-19T04:46:44;100295.94;;;22.79;48.32
28344;BME280;15597;50.914;6.638;2023-09-19T04:49:11;100294.97;;;22.80;48.25
28344;BME280;15597;50.914;6.638;2023-09-19T04:51:37;100300.31;;;22.80;48.44
28344;BME280;15597;50.914;6.638;2023-09-19T04:54:03;100305.66;;;22.80;48.27
28344;BME280;15597;50.914;6.638;2023-09-19T04:56:29;100308.41;;;22.79;48.26
28344;BME280;15597;50.914;6.638;2023-09-19T04:58:55;100317.28;;;22.79;47.90
28344;BME280;15597;50.914;6.638;2023-09-19T05:01:21;100321.88;;;22.77;48.31
28344;BME280;15597;50.914;6.638;2023-09-19T05:03:48;100326.94;;;22.57;48.65
28344;BME280;15597;50.914;6.638;2023-09-19T05:06:18;100328.16;;;22.65;48.46
28344;BME280;15597;50.914;6.638;2023-09-19T05:08:46;100326.25;;;22.67;48.22
28344;BME280;15597;50.914;6.638;2023-09-19T05:11:17;100322.59;;;22.68;48.19
28344;BME280;15597;50.914;6.638;2023-09-19T05:13:43;100326.00;;;22.70;48.19
28344;BME280;15597;50.914;6.638;2023-09-19T05:16:08;100337.50;;;22.70;48.01
28344;BME280;15597;50.914;6.638;2023-09-19T05:18:36;100336.66;;;22.70;48.14
28344;BME280;15597;50.914;6.638;2023-09-19T05:21:05;100341.13;;;22.69;48.09
28344;BME280;15597;50.914;6.638;2023-09-19T05:23:30;100333.03;;;22.71;48.08
28344;BME280;15597;50.914;6.638;2023-09-19T05:25:56;100350.00;;;22.70;47.95
28344;BME280;15597;50.914;6.638;2023-09-19T05:28:25;100355.56;;;22.67;48.02
28344;BME280;15597;50.914;6.638;2023-09-19T05:30:51;100354.59;;;22.68;48.37
28344;BME280;15597;50.914;6.638;2023-09-19T05:33:16;100361.97;;;22.64;48.14
28344;BME280;15597;50.914;6.638;2023-09-19T05:35:43;100359.53;;;22.61;48.15
28344;BME280;15597;50.914;6.638;2023-09-19T05:38:09;100363.16;;;22.60;48.31
28344;BME280;15597;50.914;6.638;2023-09-19T05:40:35;100365.75;;;22.61;48.03
28344;BME280;15597;50.914;6.638;2023-09-19T05:43:01;100367.91;;;22.56;48.34
28344;BME280;15597;50.914;6.638;2023-09-19T05:45:28;100376.13;;;22.53;48.14
28344;BME280;15597;50.914;6.638;2023-09-19T05:47:54;100366.44;;;22.52;47.80
28344;BME280;15597;50.914;6.638;2023-09-19T05:50:26;100377.09;;;22.52;48.20
28344;BME280;15597;50.914;6.638;2023-09-19T05:52:52;100376.97;;;22.54;48.25
28344;BME280;15597;50.914;6.638;2023-09-19T05:55:18;100385.09;;;22.52;48.28
28344;BME280;15597;50.914;6.638;2023-09-19T05:57:49;100380.09;;;22.47;48.10
28344;BME280;15597;50.914;6.638;2023-09-19T06:00:16;100385.34;;;22.49;47.98
28344;BME280;15597;50.914;6.638;2023-09-19T06:02:43;100385.44;;;22.47;48.11
28344;BME280;15597;50.914;6.638;2023-09-19T06:05:10;100394.81;;;22.53;48.05
28344;BME280;15597;50.914;6.638;2023-09-19T06:07:37;100405.47;;;22.53;48.29
28344;BME280;15597;50.914;6.638;2023-09-19T06:10:03;100405.47;;;22.53;48.18
28344;BME280;15597;50.914;6.638;2023-09-19T06:12:31;100413.47;;;22.53;48.27
28344;BME280;15597;50.914;6.638;2023-09-19T06:14:59;100417.94;;;22.53;48.04
28344;BME280;15597;50.914;6.638;2023-09-19T06:17:25;100419.75;;;22.52;48.19
28344;BME280;15597;50.914;6.638;2023-09-19T06:19:53;100418.06;;;22.51;48.00
28344;BME280;15597;50.914;6.638;2023-09-19T06:22:19;100416.34;;;22.50;48.39
28344;BME280;15597;50.914;6.638;2023-09-19T06:24:45;100420.00;;;22.49;47.98
28344;BME280;15597;50.914;6.638;2023-09-19T06:27:12;100420.81;;;22.50;48.08
28344;BME280;15597;50.914;6.638;2023-09-19T06:29:38;100420.00;;;22.49;48.26
28344;BME280;15597;50.914;6.638;2023-09-19T06:32:09;100421.19;;;22.45;48.33
28344;BME280;15597;50.914;6.638;2023-09-19T06:34:36;100421.91;;;22.47;48.15
28344;BME280;15597;50.914;6.638;2023-09-19T06:37:01;100420.22;;;22.46;48.32
28344;BME280;15597;50.914;6.638;2023-09-19T06:39:28;100432.59;;;22.47;48.23
28344;BME280;15597;50.914;6.638;2023-09-19T06:41:54;100425.31;;;22.49;48.29
28344;BME280;15597;50.914;6.638;2023-09-19T06:44:19;100427.03;;;22.50;48.13
28344;BME280;15597;50.914;6.638;2023-09-19T06:46:47;100423.63;;;22.48;47.99
28344;BME280;15597;50.914;6.638;2023-09-19T06:49:15;100426.06;;;22.51;48.14
28344;BME280;15597;50.914;6.638;2023-09-19T06:51:41;100426.88;;;22.52;48.20
28344;BME280;15597;50.914;6.638;2023-09-19T06:54:07;100428.50;;;22.54;48.02
28344;BME280;15597;50.914;6.638;2023-09-19T06:56:32;100434.78;;;22.53;47.89
28344;BME280;15597;50.914;6.638;2023-09-19T06:58:58;100427.63;;;22.54;48.10
28344;BME280;15597;50.914;6.638;2023-09-19T07:01:24;100424.88;;;22.55;48.20
28344;BME280;15597;50.914;6.638;2023-09-19T07:03:50;100431.91;;;22.56;47.71
28344;BME280;15597;50.914;6.638;2023-09-19T07:06:16;100423.03;;;22.56;48.16
28344;BME280;15597;50.914;6.638;2023-09-19T07:08:43;100421.22;;;22.56;47.77
28344;BME280;15597;50.914;6.638;2023-09-19T07:11:10;100430.19;;;22.55;47.76
28344;BME280;15597;50.914;6.638;2023-09-19T07:13:38;100425.59;;;22.57;47.79
28344;BME280;15597;50.914;6.638;2023-09-19T07:16:04;100432.13;;;22.53;47.82
28344;BME280;15597;50.914;6.638;2023-09-19T07:18:30;100433.19;;;22.51;48.27
28344;BME280;15597;50.914;6.638;2023-09-19T07:20:58;100436.81;;;22.50;47.92
28344;BME280;15597;50.914;6.638;2023-09-19T07:23:30;100430.66;;;22.49;47.94
28344;BME280;15597;50.914;6.638;2023-09-19T07:26:03;100432.78;;;22.44;48.18
28344;BME280;15597;50.914;6.638;2023-09-19T07:28:31;100438.13;;;22.44;48.25
28344;BME280;15597;50.914;6.638;2023-09-19T07:30:56;100432.78;;;22.44;48.42
28344;BME280;15597;50.914;6.638;2023-09-19T07:33:22;100433.53;;;22.46;48.12
28344;BME280;15597;50.914;6.638;2023-09-19T07:35:50;100443.25;;;22.47;48.14
28344;BME280;15597;50.914;6.638;2023-09-19T07:38:15;100446.66;;;22.49;48.07
28344;BME280;15597;50.914;6.638;2023-09-19T07:40:42;100447.25;;;22.53;48.06
28344;BME280;15597;50.914;6.638;2023-09-19T07:43:07;100444.50;;;22.54;47.95
28344;BME280;15597;50.914;6.638;2023-09-19T07:45:34;100453.22;;;22.56;47.97
28344;BME280;15597;50.914;6.638;2023-09-19T07:47:59;100445.97;;;22.58;48.21
28344;BME280;15597;50.914;6.638;2023-09-19T07:50:29;100453.00;;;22.59;48.04
28344;BME280;15597;50.914;6.638;2023-09-19T07:52:54;100450.19;;;22.61;47.67
28344;BME280;15597;50.914;6.638;2023-09-19T07:55:22;100452.75;;;22.63;47.66
28344;BME280;15597;50.914;6.638;2023-09-19T07:57:54;100458.31;;;22.59;47.88
28344;BME280;15597;50.914;6.638;2023-09-19T08:00:19;100452.03;;;22.60;47.81
28344;BME280;15597;50.914;6.638;2023-09-19T08:02:45;100459.81;;;22.64;47.90
28344;BME280;15597;50.914;6.638;2023-09-19T08:05:11;100446.47;;;22.64;47.43
28344;BME280;15597;50.914;6.638;2023-09-19T08:07:38;100449.75;;;22.67;47.60
28344;BME280;15597;50.914;6.638;2023-09-19T08:10:04;100445.28;;;22.68;47.26
28344;BME280;15597;50.914;6.638;2023-09-19T08:12:34;100454.97;;;22.69;47.46
28344;BME280;15597;50.914;6.638;2023-09-19T08:15:04;100456.03;;;22.66;47.32
28344;BME280;15597;50.914;6.638;2023-09-19T08:17:35;100455.16;;;22.54;47.24
28344;BME280;15597;50.914;6.638;2023-09-19T08:20:01;100453.97;;;22.58;47.40
28344;BME280;15597;50.914;6.638;2023-09-19T08:22:30;100448.72;;;22.57;47.41
28344;BME280;15597;50.914;6.638;2023-09-19T08:24:57;100447.44;;;22.63;47.56
28344;BME280;15597;50.914;6.638;2023-09-19T08:27:24;100450.19;;;22.61;47.32
28344;BME280;15597;50.914;6.638;2023-09-19T08:29:53;100455.75;;;22.58;47.49
28344;BME280;15597;50.914;6.638;2023-09-19T08:32:18;100457.59;;;22.57;47.33
28344;BME280;15597;50.914;6.638;2023-09-19T08:34:50;100455.31;;;22.64;47.33
28344;BME280;15597;50.914;6.638;2023-09-19T08:37:15;100455.94;;;22.68;47.32
28344;BME280;15597;50.914;6.638;2023-09-19T08:39:42;100450.59;;;22.68;47.21
28344;BME280;15597;50.914;6.638;2023-09-19T08:42:08;100449.41;;;22.72;47.30
28344;BME280;15597;50.914;6.638;2023-09-19T08:44:37;100453.78;;;22.73;47.27
28344;BME280;15597;50.914;6.638;2023-09-19T08:47:15;100448.91;;;22.67;47.05
28344;BME280;15597;50.914;6.638;2023-09-19T08:50:04;100453.13;;;22.69;47.11
28344;BME280;15597;50.914;6.638;2023-09-19T08:52:41;100466.75;;;22.77;46.63
28344;BME280;15597;50.914;6.638;2023-09-19T08:55:07;100446.03;;;22.81;46.58
28344;BME280;15597;50.914;6.638;2023-09-19T08:57:38;100455.97;;;22.79;46.49
28344;BME280;15597;50.914;6.638;2023-09-19T09:00:07;100459.47;;;22.80;46.62
28344;BME280;15597;50.914;6.638;2023-09-19T09:02:40;100460.44;;;22.79;46.42
28344;BME280;15597;50.914;6.638;2023-09-19T09:05:10;100461.59;;;22.87;46.35
28344;BME280;15597;50.914;6.638;2023-09-19T09:07:37;100468.63;;;22.88;46.19
28344;BME280;15597;50.914;6.638;2023-09-19T09:10:03;100465.84;;;22.90;46.27
28344;BME280;15597;50.914;6.638;2023-09-19T09:12:29;100462.09;;;22.93;46.33
28344;BME280;15597;50.914;6.638;2023-09-19T09:14:55;100458.13;;;22.98;45.85
28344;BME280;15597;50.914;6.638;2023-09-19T09:17:23;100462.13;;;23.04;46.09
28344;BME280;15597;50.914;6.638;2023-09-19T09:19:52;100465.16;;;22.99;45.97
28344;BME280;15597;50.914;6.638;2023-09-19T09:22:18;100464.44;;;23.09;45.49
28344;BME280;15597;50.914;6.638;2023-09-19T09:27:20;100460.66;;;23.00;45.63
28344;BME280;15597;50.914;6.638;2023-09-19T09:29:47;100456.78;;;23.04;45.42
28344;BME280;15597;50.914;6.638;2023-09-19T09:32:23;100446.38;;;23.12;44.78
28344;BME280;15597;50.914;6.638;2023-09-19T09:34:53;100444.81;;;23.10;45.12
28344;BME280;15597;50.914;6.638;2023-09-19T09:37:20;100448.78;;;23.15;45.23
28344;BME280;15597;50.914;6.638;2023-09-19T09:39:56;100452.66;;;23.11;45.13
28344;BME280;15597;50.914;6.638;2023-09-19T09:42:34;100447.09;;;23.14;45.11
28344;BME280;15597;50.914;6.638;2023-09-19T09:45:21;100449.28;;;23.20;44.66
28344;BME280;15597;50.914;6.638;2023-09-19T09:48:09;100453.44;;;23.25;44.38
28344;BME280;15597;50.914;6.638;2023-09-19T09:50:48;100447.16;;;23.26;44.77
28344;BME280;15597;50.914;6.638;2023-09-19T09:53:25;100451.66;;;23.37;44.18
28344;BME280;15597;50.914;6.638;2023-09-19T09:56:05;100454.22;;;23.38;44.36
28344;BME280;15597;50.914;6.638;2023-09-19T09:58:36;100450.34;;;23.42;44.20
28344;BME280;15597;50.914;6.638;2023-09-19T10:01:03;100449.88;;;23.48;44.15
28344;BME280;15597;50.914;6.638;2023-09-19T10:03:38;100446.97;;;23.52;43.53
28344;BME280;15597;50.914;6.638;2023-09-19T10:06:14;100445.97;;;23.53;43.95
28344;BME280;15597;50.914;6.638;2023-09-19T10:09:02;100434.56;;;23.62;43.76
28344;BME280;15597;50.914;6.638;2023-09-19T10:12:03;100439.78;;;23.63;43.37
28344;BME280;15597;50.914;6.638;2023-09-19T10:14:30;100438.56;;;23.68;43.69
28344;BME280;15597;50.914;6.638;2023-09-19T10:17:02;100440.38;;;23.78;42.93
28344;BME280;15597;50.914;6.638;2023-09-19T10:19:42;100433.34;;;23.77;43.49
28344;BME280;15597;50.914;6.638;2023-09-19T10:22:13;100436.34;;;23.84;43.08
28344;BME280;15597;50.914;6.638;2023-09-19T10:24:47;100439.03;;;23.96;43.25
28344;BME280;15597;50.914;6.638;2023-09-19T10:27:17;100429.84;;;24.00;42.97
28344;BME280;15597;50.914;6.638;2023-09-19T10:29:45;100431.63;;;24.11;42.10
28344;BME280;15597;50.914;6.638;2023-09-19T10:32:14;100426.88;;;24.14;42.44
28344;BME280;15597;50.914;6.638;2023-09-19T10:34:46;100428.22;;;24.09;41.96
28344;BME280;15597;50.914;6.638;2023-09-19T10:37:13;100420.44;;;24.17;42.43
28344;BME280;15597;50.914;6.638;2023-09-19T10:39:40;100416.41;;;24.23;42.04
28344;BME280;15597;50.914;6.638;2023-09-19T10:42:08;100419.41;;;24.29;42.25
28344;BME280;15597;50.914;6.638;2023-09-19T10:44:38;100413.69;;;24.34;41.90
28344;BME280;15597;50.914;6.638;2023-09-19T10:47:09;100412.34;;;24.40;42.16
28344;BME280;15597;50.914;6.638;2023-09-19T10:49:35;100418.28;;;24.43;41.75
28344;BME280;15597;50.914;6.638;2023-09-19T10:52:01;100410.41;;;24.42;41.57
28344;BME280;15597;50.914;6.638;2023-09-19T10:54:31;100419.72;;;24.47;41.41
28344;BME280;15597;50.914;6.638;2023-09-19T10:56:59;100417.41;;;24.54;40.69
28344;BME280;15597;50.914;6.638;2023-09-19T10:59:26;100421.53;;;24.58;41.02
28344;BME280;15597;50.914;6.638;2023-09-19T11:02:15;100422.03;;;24.52;41.64
28344;BME280;15597;50.914;6.638;2023-09-19T11:04:42;100422.69;;;24.65;41.41
28344;BME280;15597;50.914;6.638;2023-09-19T11:07:14;100431.03;;;24.72;41.81
28344;BME280;15597;50.914;6.638;2023-09-19T11:09:47;100420.09;;;24.75;41.21
28344;BME280;15597;50.914;6.638;2023-09-19T11:14:57;100422.88;;;24.85;40.60
28344;BME280;15597;50.914;6.638;2023-09-19T11:17:43;100424.81;;;24.83;41.16
28344;BME280;15597;50.914;6.638;2023-09-19T11:30:41;100431.09;;;24.93;40.30
28344;BME280;15597;50.914;6.638;2023-09-19T11:36:09;100439.56;;;24.99;40.33
28344;BME280;15597;50.914;6.638;2023-09-19T11:49:19;100429.78;;;25.09;39.97
28344;BME280;15597;50.914;6.638;2023-09-19T11:51:51;100429.84;;;25.19;40.39
28344;BME280;15597;50.914;6.638;2023-09-19T11:54:20;100424.97;;;25.34;39.03
28344;BME280;15597;50.914;6.638;2023-09-19T11:56:51;100434.16;;;25.41;38.77
28344;BME280;15597;50.914;6.638;2023-09-19T11:59:22;100427.84;;;25.42;38.88
28344;BME280;15597;50.914;6.638;2023-09-19T12:01:53;100422.28;;;25.45;38.62
28344;BME280;15597;50.914;6.638;2023-09-19T12:07:10;100425.13;;;25.54;38.93
28344;BME280;15597;50.914;6.638;2023-09-19T12:09:44;100426.84;;;25.64;38.56
28344;BME280;15597;50.914;6.638;2023-09-19T12:12:26;100420.09;;;25.70;38.02
28344;BME280;15597;50.914;6.638;2023-09-19T12:14:54;100419.13;;;25.81;37.61
28344;BME280;15597;50.914;6.638;2023-09-19T12:17:20;100415.78;;;25.89;37.50
28344;BME280;15597;50.914;6.638;2023-09-19T12:19:53;100413.53;;;25.94;37.86
28344;BME280;15597;50.914;6.638;2023-09-19T12:22:19;100416.66;;;25.99;37.89
28344;BME280;15597;50.914;6.638;2023-09-19T12:24:48;100407.78;;;25.99;38.15
28344;BME280;15597;50.914;6.638;2023-09-19T12:27:16;100413.13;;;26.08;37.38
28344;BME280;15597;50.914;6.638;2023-09-19T12:29:46;100406.50;;;26.13;37.68
28344;BME280;15597;50.914;6.638;2023-09-19T12:32:14;100395.78;;;26.13;37.89
28344;BME280;15597;50.914;6.638;2023-09-19T12:34:42;100404.00;;;26.21;37.20
28344;BME280;15597;50.914;6.638;2023-09-19T12:37:12;100398.09;;;26.27;36.84
28344;BME280;15597;50.914;6.638;2023-09-19T12:39:44;100399.22;;;26.34;37.29
28344;BME280;15597;50.914;6.638;2023-09-19T12:42:24;100394.16;;;26.51;36.36
28344;BME280;15597;50.914;6.638;2023-09-19T12:44:53;100392.59;;;26.58;36.17
28344;BME280;15597;50.914;6.638;2023-09-19T12:47:22;100379.31;;;26.66;35.82
28344;BME280;15597;50.914;6.638;2023-09-19T12:50:15;100365.50;;;26.61;36.41
28344;BME280;15597;50.914;6.638;2023-09-19T12:52:48;100375.47;;;26.69;35.93
28344;BME280;15597;50.914;6.638;2023-09-19T12:58:08;100383.56;;;26.59;35.56
28344;BME280;15597;50.914;6.638;2023-09-19T13:00:39;100377.22;;;26.60;36.10
28344;BME280;15597;50.914;6.638;2023-09-19T13:03:25;100365.34;;;26.53;36.74
28344;BME280;15597;50.914;6.638;2023-09-19T13:05:56;100361.09;;;26.60;36.47
28344;BME280;15597;50.914;6.638;2023-09-19T13:08:38;100357.97;;;26.65;36.45
28344;BME280;15597;50.914;6.638;2023-09-19T13:11:12;100360.94;;;26.72;36.16
28344;BME280;15597;50.914;6.638;2023-09-19T13:13:39;100355.16;;;26.57;35.98
28344;BME280;15597;50.914;6.638;2023-09-19T13:16:05;100348.97;;;26.46;36.17
28344;BME280;15597;50.914;6.638;2023-09-19T13:18:43;100346.41;;;26.64;35.94
28344;BME280;15597;50.914;6.638;2023-09-19T13:21:12;100355.69;;;26.80;35.17
28344;BME280;15597;50.914;6.638;2023-09-19T13:23:42;100350.78;;;26.85;34.98
28344;BME280;15597;50.914;6.638;2023-09-19T13:26:09;100347.38;;;26.83;34.91
28344;BME280;15597;50.914;6.638;2023-09-19T13:28:37;100353.72;;;26.82;35.02
28344;BME280;15597;50.914;6.638;2023-09-19T13:31:03;100350.34;;;26.80;34.94
28344;BME280;15597;50.914;6.638;2023-09-19T13:33:29;100354.72;;;26.81;34.54
28344;BME280;15597;50.914;6.638;2023-09-19T13:35:54;100345.25;;;26.77;34.68
28344;BME280;15597;50.914;6.638;2023-09-19T13:38:22;100350.63;;;26.77;34.88
28344;BME280;15597;50.914;6.638;2023-09-19T13:40:48;100354.72;;;26.71;34.88
28344;BME280;15597;50.914;6.638;2023-09-19T13:43:13;100354.59;;;26.73;34.76